sensor_id;sensor_type;location;lat;lon;timestamp;pressure;altitude;pressure_sealevel;temperature;humidity
16821;BME280;8527;49.740;6.604;2022-09-12T00:02:26;99906.44;;;13.32;100.00
16821;BME280;8527;49.740;6.604;2022-09-12T00:07:25;99904.50;;;13.26;100.00
16821;BME280;8527;49.740;6.604;2022-09-12T00:12:23;99893.84;;;13.26;100.00
16821;BME280;8527;49.740;6.604;2022-09-12T00:17:24;99891.16;;;13.26;100.00
16821;BME280;8527;49.740;6.604;2022-09-12T00:22:22;99895.22;;;13.22;100.00
16821;BME280;8527;49.740;6.604;2022-09-12T00:27:21;99892.00;;;13.27;100.00
16821;BME280;8527;49.740;6.604;2022-09-12T00:32:19;99888.84;;;13.08;100.00
16821;BME280;8527;49.740;6.604;2022-09-12T00:37:20;99881.22;;;13.05;100.00
16821;BME280;8527;49.740;6.604;2022-09-12T00:42:19;99878.56;;;13.05;100.00
16821;BME280;8527;49.740;6.604;2022-09-12T00:47:22;99875.53;;;12.93;100.00
16821;BME280;8527;49.740;6.604;2022-09-12T00:52:34;99865.44;;;13.03;100.00
16821;BME280;8527;49.740;6.604;2022-09-12T00:57:41;99866.31;;;12.95;100.00
16821;BME280;8527;49.740;6.604;2022-09-12T01:02:43;99860.72;;;12.90;100.00
16821;BME280;8527;49.740;6.604;2022-09-12T01:07:46;99849.06;;;12.91;100.00
16821;BME280;8527;49.740;6.604;2022-09-12T01:12:45;99846.88;;;12.95;100.00
16821;BME280;8527;49.740;6.604;2022-09-12T01:17:57;99845.78;;;12.89;100.00
16821;BME280;8527;49.740;6.604;2022-09-12T01:23:17;99855.78;;;12.87;100.00
16821;BME280;8527;49.740;6.604;2022-09-12T01:28:47;99847.59;;;12.74;100.00
16821;BME280;8527;49.740;6.604;2022-09-12T01:34:01;99843.38;;;12.79;100.00
16821;BME280;8527;49.740;6.604;2022-09-12T01:39:05;99842.53;;;12.79;100.00
16821;BME280;8527;49.740;6.604;2022-09-12T01:44:13;99838.94;;;12.72;100.00
16821;BME280;8527;49.740;6.604;2022-09-12T01:49:27;99833.97;;;12.69;100.00
16821;BME280;8527;49.740;6.604;2022-09-12T01:54:34;99834.34;;;12.65;100.00
16821;BME280;8527;49.740;6.604;2022-09-12T01:59:38;99828.53;;;12.62;100.00
16821;BME280;8527;49.740;6.604;2022-09-12T02:04:44;99828.63;;;12.54;100.00
16821;BME280;8527;49.740;6.604;2022-09-12T02:09:48;99823.00;;;12.48;100.00
16821;BME280;8527;49.740;6.604;2022-09-12T02:14:52;99819.63;;;12.55;100.00
16821;BME280;8527;49.740;6.604;2022-09-12T02:19:55;99818.44;;;12.57;100.00
16821;BME280;8527;49.740;6.604;2022-09-12T02:24:59;99820.00;;;12.51;100.00
16821;BME280;8527;49.740;6.604;2022-09-12T02:30:05;99811.44;;;12.41;100.00
16821;BME280;8527;49.740;6.604;2022-09-12T02:35:10;99817.19;;;12.45;100.00
16821;BME280;8527;49.740;6.604;2022-09-12T02:40:13;99818.31;;;12.50;100.00
16821;BME280;8527;49.740;6.604;2022-09-12T02:45:12;99814.59;;;12.60;100.00
16821;BME280;8527;49.740;6.604;2022-09-12T02:50:13;99813.59;;;12.61;100.00
16821;BME280;8527;49.740;6.604;2022-09-12T02:55:13;99814.41;;;12.61;100.00
16821;BME280;8527;49.740;6.604;2022-09-12T03:00:13;99812.66;;;12.69;100.00
16821;BME280;8527;49.740;6.604;2022-09-12T03:05:26;99812.03;;;12.66;100.00
16821;BME280;8527;49.740;6.604;2022-09-12T03:10:32;99815.28;;;12.77;100.00
16821;BME280;8527;49.740;6.604;2022-09-12T03:15:45;99804.63;;;12.77;100.00
16821;BME280;8527;49.740;6.604;2022-09-12T03:20:53;99800.69;;;12.73;100.00
16821;BME280;8527;49.740;6.604;2022-09-12T03:25:58;99798.44;;;12.61;100.00
16821;BME280;8527;49.740;6.604;2022-09-12T03:30:58;99803.31;;;12.58;100.00
16821;BME280;8527;49.740;6.604;2022-09-12T03:36:00;99801.00;;;12.55;100.00
16821;BME280;8527;49.740;6.604;2022-09-12T03:40:59;99798.34;;;12.70;100.00
16821;BME280;8527;49.740;6.604;2022-09-12T03:45:58;99793.50;;;12.73;100.00
16821;BME280;8527;49.740;6.604;2022-09-12T03:51:02;99792.06;;;12.71;100.00
16821;BME280;8527;49.740;6.604;2022-09-12T03:56:05;99789.38;;;12.71;100.00
16821;BME280;8527;49.740;6.604;2022-09-12T04:01:07;99778.13;;;12.45;100.00
16821;BME280;8527;49.740;6.604;2022-09-12T04:06:11;99782.88;;;12.35;100.00
16821;BME280;8527;49.740;6.604;2022-09-12T04:11:13;99787.50;;;12.41;100.00
16821;BME280;8527;49.740;6.604;2022-09-12T04:16:13;99782.28;;;12.48;100.00
16821;BME280;8527;49.740;6.604;2022-09-12T04:21:16;99775.72;;;12.35;100.00
16821;BME280;8527;49.740;6.604;2022-09-12T04:26:18;99775.28;;;12.08;100.00
16821;BME280;8527;49.740;6.604;2022-09-12T04:31:23;99773.34;;;11.94;100.00
16821;BME280;8527;49.740;6.604;2022-09-12T04:36:25;99777.31;;;11.98;100.00
16821;BME280;8527;49.740;6.604;2022-09-12T04:41:26;99776.31;;;11.99;100.00
16821;BME280;8527;49.740;6.604;2022-09-12T04:46:25;99777.75;;;12.10;100.00
16821;BME280;8527;49.740;6.604;2022-09-12T04:51:28;99773.03;;;12.20;100.00
16821;BME280;8527;49.740;6.604;2022-09-12T04:56:28;99774.72;;;12.13;100.00
16821;BME280;8527;49.740;6.604;2022-09-12T05:01:28;99769.84;;;12.02;100.00
16821;BME280;8527;49.740;6.604;2022-09-12T05:06:34;99764.53;;;12.02;100.00
16821;BME280;8527;49.740;6.604;2022-09-12T05:11:37;99761.50;;;12.05;100.00
16821;BME280;8527;49.740;6.604;2022-09-12T05:16:39;99753.53;;;12.05;100.00
16821;BME280;8527;49.740;6.604;2022-09-12T05:21:40;99760.47;;;12.29;100.00
16821;BME280;8527;49.740;6.604;2022-09-12T05:26:39;99755.16;;;12.29;100.00
16821;BME280;8527;49.740;6.604;2022-09-12T05:31:37;99753.97;;;12.32;100.00
16821;BME280;8527;49.740;6.604;2022-09-12T05:36:36;99757.66;;;12.31;100.00
16821;BME280;8527;49.740;6.604;2022-09-12T05:41:40;99763.59;;;12.33;100.00
16821;BME280;8527;49.740;6.604;2022-09-12T05:46:40;99753.81;;;12.33;100.00
16821;BME280;8527;49.740;6.604;2022-09-12T05:51:41;99770.22;;;12.37;100.00
16821;BME280;8527;49.740;6.604;2022-09-12T05:56:43;99767.06;;;12.57;100.00
16821;BME280;8527;49.740;6.604;2022-09-12T06:01:45;99767.16;;;12.63;100.00
16821;BME280;8527;49.740;6.604;2022-09-12T06:06:45;99770.53;;;12.57;100.00
16821;BME280;8527;49.740;6.604;2022-09-12T06:11:48;99776.84;;;12.56;100.00
16821;BME280;8527;49.740;6.604;2022-09-12T06:16:47;99785.22;;;12.53;100.00
16821;BME280;8527;49.740;6.604;2022-09-12T06:21:45;99785.94;;;12.47;100.00
16821;BME280;8527;49.740;6.604;2022-09-12T06:26:47;99782.84;;;12.58;100.00
16821;BME280;8527;49.740;6.604;2022-09-12T06:31:47;99792.94;;;12.63;100.00
16821;BME280;8527;49.740;6.604;2022-09-12T06:36:48;99792.50;;;12.59;100.00
16821;BME280;8527;49.740;6.604;2022-09-12T06:41:50;99807.03;;;12.48;100.00
16821;BME280;8527;49.740;6.604;2022-09-12T06:46:49;99797.03;;;12.50;100.00
16821;BME280;8527;49.740;6.604;2022-09-12T06:51:48;99793.81;;;12.40;100.00
16821;BME280;8527;49.740;6.604;2022-09-12T06:56:47;99801.22;;;12.30;100.00
16821;BME280;8527;49.740;6.604;2022-09-12T07:01:47;99808.72;;;12.64;100.00
16821;BME280;8527;49.740;6.604;2022-09-12T07:06:48;99802.28;;;12.59;100.00
16821;BME280;8527;49.740;6.604;2022-09-12T07:11:47;99795.50;;;12.56;100.00
16821;BME280;8527;49.740;6.604;2022-09-12T07:16:50;99796.03;;;12.90;100.00
16821;BME280;8527;49.740;6.604;2022-09-12T07:21:49;99791.88;;;12.87;100.00
16821;BME280;8527;49.740;6.604;2022-09-12T07:26:48;99795.91;;;12.98;100.00
16821;BME280;8527;49.740;6.604;2022-09-12T07:31:49;99788.19;;;13.18;100.00
16821;BME280;8527;49.740;6.604;2022-09-12T07:36:47;99786.00;;;13.22;100.00
16821;BME280;8527;49.740;6.604;2022-09-12T07:41:46;99793.25;;;13.28;100.00
16821;BME280;8527;49.740;6.604;2022-09-12T07:46:44;99789.41;;;13.46;100.00
16821;BME280;8527;49.740;6.604;2022-09-12T07:51:45;99792.47;;;13.64;100.00
16821;BME280;8527;49.740;6.604;2022-09-12T07:56:43;99792.53;;;13.71;100.00
16821;BME280;8527;49.740;6.604;2022-09-12T08:01:41;99792.25;;;14.03;100.00
16821;BME280;8527;49.740;6.604;2022-09-12T08:06:40;99792.41;;;13.95;100.00
16821;BME280;8527;49.740;6.604;2022-09-12T08:11:41;99790.03;;;13.85;100.00
16821;BME280;8527;49.740;6.604;2022-09-12T08:16:42;99794.31;;;13.64;100.00
16821;BME280;8527;49.740;6.604;2022-09-12T08:21:41;99790.53;;;13.73;100.00
16821;BME280;8527;49.740;6.604;2022-09-12T08:26:42;99789.38;;;13.83;100.00
16821;BME280;8527;49.740;6.604;2022-09-12T08:31:40;99791.28;;;14.32;100.00
16821;BME280;8527;49.740;6.604;2022-09-12T08:36:41;99794.38;;;14.58;100.00
16821;BME280;8527;49.740;6.604;2022-09-12T08:41:44;99795.38;;;14.79;100.00
16821;BME280;8527;49.740;6.604;2022-09-12T08:46:57;99799.16;;;14.91;100.00
16821;BME280;8527;49.740;6.604;2022-09-12T08:52:04;99807.78;;;14.65;100.00
16821;BME280;8527;49.740;6.604;2022-09-12T08:57:08;99797.84;;;15.15;100.00
16821;BME280;8527;49.740;6.604;2022-09-12T09:02:23;99794.88;;;16.01;96.83
16821;BME280;8527;49.740;6.604;2022-09-12T09:07:56;99792.03;;;16.16;94.06
16821;BME280;8527;49.740;6.604;2022-09-12T09:13:03;99782.34;;;16.69;92.83
16821;BME280;8527;49.740;6.604;2022-09-12T09:18:10;99784.63;;;17.44;90.58
16821;BME280;8527;49.740;6.604;2022-09-12T09:23:18;99775.56;;;18.17;90.36
16821;BME280;8527;49.740;6.604;2022-09-12T09:28:30;99768.50;;;17.90;87.34
16821;BME280;8527;49.740;6.604;2022-09-12T09:33:34;99773.13;;;18.40;84.28
16821;BME280;8527;49.740;6.604;2022-09-12T09:38:39;99762.53;;;19.27;83.27
16821;BME280;8527;49.740;6.604;2022-09-12T09:43:46;99755.00;;;19.36;82.54
16821;BME280;8527;49.740;6.604;2022-09-12T09:48:47;99742.97;;;19.81;82.34
16821;BME280;8527;49.740;6.604;2022-09-12T09:53:49;99747.09;;;20.50;81.22
16821;BME280;8527;49.740;6.604;2022-09-12T09:58:51;99739.47;;;20.23;76.53
16821;BME280;8527;49.740;6.604;2022-09-12T10:03:55;99729.72;;;20.46;79.19
16821;BME280;8527;49.740;6.604;2022-09-12T10:09:15;99714.19;;;21.13;74.56
16821;BME280;8527;49.740;6.604;2022-09-12T10:14:41;99703.91;;;20.98;73.54
16821;BME280;8527;49.740;6.604;2022-09-12T10:19:46;99707.44;;;21.27;71.64
16821;BME280;8527;49.740;6.604;2022-09-12T10:29:53;99695.06;;;21.43;70.85
16821;BME280;8527;49.740;6.604;2022-09-12T10:34:54;99681.81;;;21.88;69.76
16821;BME280;8527;49.740;6.604;2022-09-12T10:39:55;99682.38;;;22.07;70.35
16821;BME280;8527;49.740;6.604;2022-09-12T10:44:57;99686.31;;;22.56;67.53
16821;BME280;8527;49.740;6.604;2022-09-12T10:50:18;99685.34;;;22.84;65.62
16821;BME280;8527;49.740;6.604;2022-09-12T10:55:16;99678.22;;;23.50;68.43
16821;BME280;8527;49.740;6.604;2022-09-12T11:00:20;99672.69;;;23.67;65.22
16821;BME280;8527;49.740;6.604;2022-09-12T11:05:34;99676.72;;;23.37;67.57
16821;BME280;8527;49.740;6.604;2022-09-12T11:10:43;99660.66;;;23.85;63.34
16821;BME280;8527;49.740;6.604;2022-09-12T11:16:01;99648.81;;;23.97;62.30
16821;BME280;8527;49.740;6.604;2022-09-12T11:21:11;99642.13;;;24.10;62.80
16821;BME280;8527;49.740;6.604;2022-09-12T11:26:24;99640.03;;;24.22;60.33
16821;BME280;8527;49.740;6.604;2022-09-12T11:31:41;99647.88;;;24.72;60.77
16821;BME280;8527;49.740;6.604;2022-09-12T11:36:56;99647.72;;;25.05;58.30
16821;BME280;8527;49.740;6.604;2022-09-12T11:42:00;99639.59;;;25.10;58.74
16821;BME280;8527;49.740;6.604;2022-09-12T11:47:03;99626.59;;;25.27;58.02
16821;BME280;8527;49.740;6.604;2022-09-12T11:52:05;99624.69;;;25.18;53.90
16821;BME280;8527;49.740;6.604;2022-09-12T11:57:10;99613.56;;;25.35;56.49
16821;BME280;8527;49.740;6.604;2022-09-12T12:02:21;99608.44;;;25.49;56.20
16821;BME280;8527;49.740;6.604;2022-09-12T12:07:22;99607.56;;;25.27;56.80
16821;BME280;8527;49.740;6.604;2022-09-12T12:12:23;99600.50;;;25.06;55.04
16821;BME280;8527;49.740;6.604;2022-09-12T12:17:25;99603.81;;;25.54;55.71
16821;BME280;8527;49.740;6.604;2022-09-12T12:22:24;99601.03;;;26.01;54.42
16821;BME280;8527;49.740;6.604;2022-09-12T12:32:46;99604.22;;;26.34;52.09
16821;BME280;8527;49.740;6.604;2022-09-12T12:37:51;99593.13;;;26.10;54.83
16821;BME280;8527;49.740;6.604;2022-09-12T12:43:00;99582.72;;;26.38;52.50
16821;BME280;8527;49.740;6.604;2022-09-12T12:48:08;99576.06;;;26.65;52.37
16821;BME280;8527;49.740;6.604;2022-09-12T12:53:18;99576.38;;;26.58;51.26
16821;BME280;8527;49.740;6.604;2022-09-12T12:58:36;99557.84;;;26.60;50.71
16821;BME280;8527;49.740;6.604;2022-09-12T13:03:42;99556.69;;;26.72;49.52
16821;BME280;8527;49.740;6.604;2022-09-12T13:08:52;99543.41;;;26.65;50.03
16821;BME280;8527;49.740;6.604;2022-09-12T13:13:58;99544.72;;;26.73;50.12
16821;BME280;8527;49.740;6.604;2022-09-12T13:19:01;99548.00;;;26.75;50.45
16821;BME280;8527;49.740;6.604;2022-09-12T13:24:04;99533.81;;;26.73;46.96
16821;BME280;8527;49.740;6.604;2022-09-12T13:29:15;99529.53;;;26.66;46.96
16821;BME280;8527;49.740;6.604;2022-09-12T13:34:20;99514.00;;;26.67;47.75
16821;BME280;8527;49.740;6.604;2022-09-12T13:39:20;99509.53;;;26.87;48.09
16821;BME280;8527;49.740;6.604;2022-09-12T13:44:23;99513.97;;;26.72;46.15
16821;BME280;8527;49.740;6.604;2022-09-12T13:49:29;99507.38;;;26.83;46.02
16821;BME280;8527;49.740;6.604;2022-09-12T13:54:30;99504.66;;;26.83;45.28
16821;BME280;8527;49.740;6.604;2022-09-12T13:59:40;99501.53;;;26.61;47.03
16821;BME280;8527;49.740;6.604;2022-09-12T14:04:46;99504.50;;;26.64;47.88
16821;BME280;8527;49.740;6.604;2022-09-12T14:10:06;99498.75;;;26.71;47.63
16821;BME280;8527;49.740;6.604;2022-09-12T14:15:15;99484.34;;;26.15;44.95
16821;BME280;8527;49.740;6.604;2022-09-12T14:20:17;99483.22;;;26.26;45.28
16821;BME280;8527;49.740;6.604;2022-09-12T14:25:18;99469.00;;;26.40;48.02
16821;BME280;8527;49.740;6.604;2022-09-12T14:30:23;99472.81;;;26.44;46.94
16821;BME280;8527;49.740;6.604;2022-09-12T14:35:25;99474.22;;;26.31;48.61
16821;BME280;8527;49.740;6.604;2022-09-12T14:40:23;99461.50;;;26.21;48.10
16821;BME280;8527;49.740;6.604;2022-09-12T14:45:24;99464.72;;;26.29;49.21
16821;BME280;8527;49.740;6.604;2022-09-12T14:50:31;99457.69;;;26.17;49.25
16821;BME280;8527;49.740;6.604;2022-09-12T14:55:32;99456.19;;;25.85;48.11
16821;BME280;8527;49.740;6.604;2022-09-12T15:00:31;99460.56;;;25.81;49.44
16821;BME280;8527;49.740;6.604;2022-09-12T15:05:32;99456.75;;;25.82;50.97
16821;BME280;8527;49.740;6.604;2022-09-12T15:10:33;99452.47;;;25.70;53.31
16821;BME280;8527;49.740;6.604;2022-09-12T15:15:32;99454.66;;;25.48;53.56
16821;BME280;8527;49.740;6.604;2022-09-12T15:20:36;99446.53;;;25.58;54.14
16821;BME280;8527;49.740;6.604;2022-09-12T15:25:35;99448.16;;;25.54;52.77
16821;BME280;8527;49.740;6.604;2022-09-12T15:30:34;99447.91;;;25.35;50.77
16821;BME280;8527;49.740;6.604;2022-09-12T15:35:36;99446.81;;;25.31;56.21
16821;BME280;8527;49.740;6.604;2022-09-12T15:40:34;99449.03;;;25.13;57.47
16821;BME280;8527;49.740;6.604;2022-09-12T15:45:33;99440.34;;;24.95;57.50
16821;BME280;8527;49.740;6.604;2022-09-12T15:50:35;99443.31;;;24.99;59.01
16821;BME280;8527;49.740;6.604;2022-09-12T15:55:33;99440.03;;;24.50;60.47
16821;BME280;8527;49.740;6.604;2022-09-12T16:00:35;99424.25;;;24.26;60.58
16821;BME280;8527;49.740;6.604;2022-09-12T16:05:36;99423.69;;;24.04;61.88
16821;BME280;8527;49.740;6.604;2022-09-12T16:10:34;99423.34;;;24.00;62.19
16821;BME280;8527;49.740;6.604;2022-09-12T16:15:33;99416.91;;;24.16;62.47
16821;BME280;8527;49.740;6.604;2022-09-12T16:20:32;99416.03;;;24.00;61.96
16821;BME280;8527;49.740;6.604;2022-09-12T16:25:33;99407.84;;;23.80;62.57
16821;BME280;8527;49.740;6.604;2022-09-12T16:30:34;99402.97;;;23.77;63.16
16821;BME280;8527;49.740;6.604;2022-09-12T16:35:32;99406.47;;;23.77;62.79
16821;BME280;8527;49.740;6.604;2022-09-12T16:40:33;99406.13;;;23.63;64.25
16821;BME280;8527;49.740;6.604;2022-09-12T16:45:31;99400.09;;;23.40;64.29
16821;BME280;8527;49.740;6.604;2022-09-12T16:50:30;99391.56;;;23.21;64.70
16821;BME280;8527;49.740;6.604;2022-09-12T16:55:34;99392.81;;;23.08;64.99
16821;BME280;8527;49.740;6.604;2022-09-12T17:00:32;99388.16;;;22.98;64.34
16821;BME280;8527;49.740;6.604;2022-09-12T17:05:31;99386.44;;;22.82;64.40
16821;BME280;8527;49.740;6.604;2022-09-12T17:10:29;99390.38;;;22.69;64.89
16821;BME280;8527;49.740;6.604;2022-09-12T17:15:32;99385.38;;;22.50;66.21
16821;BME280;8527;49.740;6.604;2022-09-12T17:20:34;99376.94;;;22.19;66.90
16821;BME280;8527;49.740;6.604;2022-09-12T17:25:32;99378.66;;;22.03;68.04
16821;BME280;8527;49.740;6.604;2022-09-12T17:30:35;99391.00;;;21.71;68.47
16821;BME280;8527;49.740;6.604;2022-09-12T17:35:34;99389.50;;;21.41;68.45
16821;BME280;8527;49.740;6.604;2022-09-12T17:40:34;99374.94;;;21.20;69.23
16821;BME280;8527;49.740;6.604;2022-09-12T17:45:35;99394.00;;;21.13;69.81
16821;BME280;8527;49.740;6.604;2022-09-12T17:50:34;99399.13;;;21.15;69.36
16821;BME280;8527;49.740;6.604;2022-09-12T17:55:33;99396.75;;;21.18;69.38
16821;BME280;8527;49.740;6.604;2022-09-12T18:00:36;99402.22;;;20.55;71.38
16821;BME280;8527;49.740;6.604;2022-09-12T18:05:48;99404.81;;;20.50;71.12
16821;BME280;8527;49.740;6.604;2022-09-12T18:10:49;99390.22;;;20.17;73.06
16821;BME280;8527;49.740;6.604;2022-09-12T18:15:53;99393.00;;;20.22;71.92
16821;BME280;8527;49.740;6.604;2022-09-12T18:20:52;99391.06;;;20.17;71.91
16821;BME280;8527;49.740;6.604;2022-09-12T18:25:55;99384.69;;;20.23;71.63
16821;BME280;8527;49.740;6.604;2022-09-12T18:31:00;99380.81;;;20.02;73.29
16821;BME280;8527;49.740;6.604;2022-09-12T18:36:02;99373.78;;;19.89;73.97
16821;BME280;8527;49.740;6.604;2022-09-12T18:41:07;99379.13;;;19.60;74.23
16821;BME280;8527;49.740;6.604;2022-09-12T18:46:11;99389.94;;;19.36;74.96
16821;BME280;8527;49.740;6.604;2022-09-12T18:51:11;99389.81;;;19.43;74.78
16821;BME280;8527;49.740;6.604;2022-09-12T18:56:12;99393.00;;;19.16;75.29
16821;BME280;8527;49.740;6.604;2022-09-12T19:01:17;99401.78;;;19.00;75.37
16821;BME280;8527;49.740;6.604;2022-09-12T19:06:17;99394.88;;;19.16;74.80
16821;BME280;8527;49.740;6.604;2022-09-12T19:11:16;99402.19;;;18.84;78.44
16821;BME280;8527;49.740;6.604;2022-09-12T19:16:19;99391.97;;;18.63;79.02
16821;BME280;8527;49.740;6.604;2022-09-12T19:21:20;99392.34;;;18.66;77.21
16821;BME280;8527;49.740;6.604;2022-09-12T19:26:20;99385.44;;;18.70;77.29
16821;BME280;8527;49.740;6.604;2022-09-12T19:31:21;99383.44;;;18.54;79.17
16821;BME280;8527;49.740;6.604;2022-09-12T19:36:20;99386.78;;;18.37;80.20
16821;BME280;8527;49.740;6.604;2022-09-12T19:41:19;99365.25;;;18.25;79.44
16821;BME280;8527;49.740;6.604;2022-09-12T19:46:22;99347.84;;;18.16;81.25
16821;BME280;8527;49.740;6.604;2022-09-12T19:51:22;99347.66;;;17.80;82.98
16821;BME280;8527;49.740;6.604;2022-09-12T19:56:21;99350.75;;;17.65;83.05
16821;BME280;8527;49.740;6.604;2022-09-12T20:01:23;99352.78;;;17.70;82.56
16821;BME280;8527;49.740;6.604;2022-09-12T20:06:23;99358.72;;;17.72;82.11
16821;BME280;8527;49.740;6.604;2022-09-12T20:11:22;99370.03;;;17.74;79.84
16821;BME280;8527;49.740;6.604;2022-09-12T20:16:25;99377.06;;;17.75;79.63
16821;BME280;8527;49.740;6.604;2022-09-12T20:21:24;99369.75;;;17.64;81.56
16821;BME280;8527;49.740;6.604;2022-09-12T20:26:25;99369.63;;;17.58;81.53
16821;BME280;8527;49.740;6.604;2022-09-12T20:31:28;99367.81;;;17.52;82.40
16821;BME280;8527;49.740;6.604;2022-09-12T20:36:27;99360.75;;;17.39;85.03
16821;BME280;8527;49.740;6.604;2022-09-12T20:41:31;99365.03;;;17.22;84.71
16821;BME280;8527;49.740;6.604;2022-09-12T20:46:32;99368.69;;;17.09;86.42
16821;BME280;8527;49.740;6.604;2022-09-12T20:51:31;99383.13;;;17.08;84.55
16821;BME280;8527;49.740;6.604;2022-09-12T20:56:30;99394.13;;;16.99;86.32
16821;BME280;8527;49.740;6.604;2022-09-12T21:01:32;99390.88;;;16.91;84.75
16821;BME280;8527;49.740;6.604;2022-09-12T21:06:30;99385.13;;;16.87;83.77
16821;BME280;8527;49.740;6.604;2022-09-12T21:11:29;99382.72;;;16.79;84.51
16821;BME280;8527;49.740;6.604;2022-09-12T21:16:27;99386.88;;;16.74;85.94
16821;BME280;8527;49.740;6.604;2022-09-12T21:21:35;99385.75;;;16.64;88.08
16821;BME280;8527;49.740;6.604;2022-09-12T21:26:33;99373.25;;;16.51;86.91
16821;BME280;8527;49.740;6.604;2022-09-12T21:31:33;99358.38;;;16.55;87.99
16821;BME280;8527;49.740;6.604;2022-09-12T21:36:35;99358.06;;;16.44;87.19
16821;BME280;8527;49.740;6.604;2022-09-12T21:41:34;99365.66;;;16.48;88.03
16821;BME280;8527;49.740;6.604;2022-09-12T21:46:33;99358.53;;;16.35;88.26
16821;BME280;8527;49.740;6.604;2022-09-12T21:51:31;99358.63;;;16.21;86.25
16821;BME280;8527;49.740;6.604;2022-09-12T21:56:35;99352.66;;;16.19;88.99
16821;BME280;8527;49.740;6.604;2022-09-12T22:01:36;99357.25;;;16.05;87.58
16821;BME280;8527;49.740;6.604;2022-09-12T22:06:34;99366.72;;;16.08;87.63
16821;BME280;8527;49.740;6.604;2022-09-12T22:11:35;99350.34;;;15.91;88.91
16821;BME280;8527;49.740;6.604;2022-09-12T22:16:34;99352.38;;;15.95;88.80
16821;BME280;8527;49.740;6.604;2022-09-12T22:21:32;99348.69;;;15.89;89.15
16821;BME280;8527;49.740;6.604;2022-09-12T22:26:59;99352.25;;;15.77;87.56
16821;BME280;8527;49.740;6.604;2022-09-12T22:31:59;99350.03;;;15.60;90.00
16821;BME280;8527;49.740;6.604;2022-09-12T22:36:58;99344.06;;;15.58;89.74
16821;BME280;8527;49.740;6.604;2022-09-12T22:41:59;99340.66;;;15.44;89.37
16821;BME280;8527;49.740;6.604;2022-09-12T22:46:58;99343.50;;;15.49;90.73
16821;BME280;8527;49.740;6.604;2022-09-12T22:51:59;99343.34;;;15.37;89.51
16821;BME280;8527;49.740;6.604;2022-09-12T22:57:00;99339.03;;;15.29;91.21
16821;BME280;8527;49.740;6.604;2022-09-12T23:01:58;99341.50;;;15.24;89.66
16821;BME280;8527;49.740;6.604;2022-09-12T23:06:56;99341.97;;;15.14;93.19
16821;BME280;8527;49.740;6.604;2022-09-12T23:11:55;99328.16;;;15.24;91.64
16821;BME280;8527;49.740;6.604;2022-09-12T23:17:01;99324.09;;;15.01;90.46
16821;BME280;8527;49.740;6.604;2022-09-12T23:21:59;99321.41;;;15.01;90.12
16821;BME280;8527;49.740;6.604;2022-09-12T23:27:01;99320.00;;;14.99;90.58
16821;BME280;8527;49.740;6.604;2022-09-12T23:32:03;99309.53;;;14.84;91.69
16821;BME280;8527;49.740;6.604;2022-09-12T23:37:02;99308.50;;;14.91;92.36
16821;BME280;8527;49.740;6.604;2022-09-12T23:42:01;99298.44;;;14.87;92.69
16821;BME280;8527;49.740;6.604;2022-09-12T23:47:02;99297.63;;;14.80;91.56
16821;BME280;8527;49.740;6.604;2022-09-12T23:52:03;99287.34;;;14.76;92.05
16821;BME280;8527;49.740;6.604;2022-09-12T23:57:02;99291.88;;;14.76;92.20
